sensor_id;sensor_type;location;lat;lon;timestamp;pressure;altitude;pressure_sealevel;temperature;humidity
19736;BME280;32064;49.310;8.646;2023-03-18T00:00:45;100052.69;;;13.15;64.84
19736;BME280;32064;49.310;8.646;2023-03-18T00:03:11;100057.84;;;13.17;64.83
19736;BME280;32064;49.310;8.646;2023-03-18T00:05:37;100058.94;;;13.14;64.13
19736;BME280;32064;49.310;8.646;2023-03-18T00:08:03;100060.88;;;13.12;64.99
19736;BME280;32064;49.310;8.646;2023-03-18T00:10:30;100072.28;;;13.13;64.04
19736;BME280;32064;49.310;8.646;2023-03-18T00:12:56;100072.44;;;13.11;64.79
19736;BME280;32064;49.310;8.646;2023-03-18T00:15:24;100079.53;;;13.11;64.95
19736;BME280;32064;49.310;8.646;2023-03-18T00:17:49;100077.00;;;13.09;65.35
19736;BME280;32064;49.310;8.646;2023-03-18T00:20:16;100071.97;;;13.06;63.91
19736;BME280;32064;49.310;8.646;2023-03-18T00:22:43;100081.84;;;13.04;64.68
19736;BME280;32064;49.310;8.646;2023-03-18T00:25:11;100077.78;;;13.00;65.25
19736;BME280;32064;49.310;8.646;2023-03-18T00:27:37;100081.25;;;13.00;65.58
19736;BME280;32064;49.310;8.646;2023-03-18T00:30:05;100081.25;;;13.00;64.09
19736;BME280;32064;49.310;8.646;2023-03-18T00:32:30;100075.28;;;12.98;65.47
19736;BME280;32064;49.310;8.646;2023-03-18T00:34:57;100082.25;;;12.99;64.51
19736;BME280;32064;49.310;8.646;2023-03-18T00:37:24;100085.00;;;12.98;65.94
19736;BME280;32064;49.310;8.646;2023-03-18T00:40:01;100082.63;;;12.95;66.02
19736;BME280;32064;49.310;8.646;2023-03-18T00:42:32;100093.44;;;12.92;65.98
19736;BME280;32064;49.310;8.646;2023-03-18T00:45:07;100090.81;;;12.92;65.43
19736;BME280;32064;49.310;8.646;2023-03-18T00:47:33;100090.66;;;12.93;64.86
19736;BME280;32064;49.310;8.646;2023-03-18T00:50:00;100089.53;;;12.86;65.09
19736;BME280;32064;49.310;8.646;2023-03-18T00:52:25;100091.44;;;12.84;64.65
19736;BME280;32064;49.310;8.646;2023-03-18T00:54:51;100090.50;;;12.85;65.80
19736;BME280;32064;49.310;8.646;2023-03-18T00:57:17;100094.81;;;12.86;64.92
19736;BME280;32064;49.310;8.646;2023-03-18T00:59:42;100098.44;;;12.85;64.88
19736;BME280;32064;49.310;8.646;2023-03-18T01:02:08;100095.78;;;12.85;65.00
19736;BME280;32064;49.310;8.646;2023-03-18T01:04:33;100097.44;;;12.86;66.42
19736;BME280;32064;49.310;8.646;2023-03-18T01:06:59;100104.53;;;12.86;65.91
19736;BME280;32064;49.310;8.646;2023-03-18T01:09:25;100101.44;;;12.80;65.72
19736;BME280;32064;49.310;8.646;2023-03-18T01:11:50;100096.00;;;12.82;65.19
19736;BME280;32064;49.310;8.646;2023-03-18T01:14:17;100094.34;;;12.81;65.35
19736;BME280;32064;49.310;8.646;2023-03-18T01:16:43;100095.06;;;12.83;64.84
19736;BME280;32064;49.310;8.646;2023-03-18T01:19:09;100091.44;;;12.84;65.77
19736;BME280;32064;49.310;8.646;2023-03-18T01:21:34;100091.72;;;12.81;65.55
19736;BME280;32064;49.310;8.646;2023-03-18T01:24:00;100097.13;;;12.79;65.07
19736;BME280;32064;49.310;8.646;2023-03-18T01:26:26;100100.47;;;12.81;66.72
19736;BME280;32064;49.310;8.646;2023-03-18T01:28:51;100107.81;;;12.78;66.70
19736;BME280;32064;49.310;8.646;2023-03-18T01:31:17;100089.34;;;12.78;64.90
19736;BME280;32064;49.310;8.646;2023-03-18T01:33:43;100098.91;;;12.79;65.19
19736;BME280;32064;49.310;8.646;2023-03-18T01:36:09;100093.78;;;12.77;65.29
19736;BME280;32064;49.310;8.646;2023-03-18T01:38:36;100104.59;;;12.74;65.06
19736;BME280;32064;49.310;8.646;2023-03-18T01:41:02;100092.22;;;12.75;65.21
19736;BME280;32064;49.310;8.646;2023-03-18T01:43:31;100097.63;;;12.73;66.35
19736;BME280;32064;49.310;8.646;2023-03-18T01:45:59;100099.59;;;12.71;65.36
19736;BME280;32064;49.310;8.646;2023-03-18T01:48:29;100097.78;;;12.72;65.20
19736;BME280;32064;49.310;8.646;2023-03-18T01:51:03;100098.72;;;12.71;66.10
19736;BME280;32064;49.310;8.646;2023-03-18T01:53:35;100098.72;;;12.71;64.68
19736;BME280;32064;49.310;8.646;2023-03-18T01:56:03;100095.50;;;12.67;65.66
19736;BME280;32064;49.310;8.646;2023-03-18T01:58:34;100083.16;;;12.68;66.01
19736;BME280;32064;49.310;8.646;2023-03-18T02:01:22;100095.78;;;12.64;65.44
19736;BME280;32064;49.310;8.646;2023-03-18T02:03:50;100092.88;;;12.67;65.65
19736;BME280;32064;49.310;8.646;2023-03-18T02:06:17;100086.88;;;12.65;65.34
19736;BME280;32064;49.310;8.646;2023-03-18T02:08:42;100089.47;;;12.55;65.53
19736;BME280;32064;49.310;8.646;2023-03-18T02:11:08;100095.44;;;12.57;64.93
19736;BME280;32064;49.310;8.646;2023-03-18T02:13:37;100088.06;;;12.51;65.69
19736;BME280;32064;49.310;8.646;2023-03-18T02:16:11;100088.31;;;12.48;66.44
19736;BME280;32064;49.310;8.646;2023-03-18T02:18:51;100079.94;;;12.43;66.21
19736;BME280;32064;49.310;8.646;2023-03-18T02:21:36;100094.22;;;12.41;66.67
19736;BME280;32064;49.310;8.646;2023-03-18T02:27:01;100095.66;;;12.33;66.66
19736;BME280;32064;49.310;8.646;2023-03-18T02:29:30;100092.34;;;12.31;66.68
19736;BME280;32064;49.310;8.646;2023-03-18T02:32:00;100094.25;;;12.29;66.13
19736;BME280;32064;49.310;8.646;2023-03-18T02:34:26;100093.81;;;12.24;66.68
19736;BME280;32064;49.310;8.646;2023-03-18T02:36:52;100095.47;;;12.25;65.41
19736;BME280;32064;49.310;8.646;2023-03-18T02:39:18;100097.41;;;12.23;67.04
19736;BME280;32064;49.310;8.646;2023-03-18T02:41:45;100105.31;;;12.23;66.05
19736;BME280;32064;49.310;8.646;2023-03-18T02:44:11;100111.44;;;12.24;66.63
19736;BME280;32064;49.310;8.646;2023-03-18T02:49:12;100105.75;;;12.28;66.08
19736;BME280;32064;49.310;8.646;2023-03-18T02:51:38;100108.41;;;12.28;65.77
19736;BME280;32064;49.310;8.646;2023-03-18T02:54:13;100108.66;;;12.25;65.42
19736;BME280;32064;49.310;8.646;2023-03-18T02:56:40;100108.66;;;12.25;65.12
19736;BME280;32064;49.310;8.646;2023-03-18T02:59:06;100113.09;;;12.25;65.25
19736;BME280;32064;49.310;8.646;2023-03-18T03:01:33;100117.53;;;12.24;66.60
19736;BME280;32064;49.310;8.646;2023-03-18T03:03:59;100120.38;;;12.32;66.81
19736;BME280;32064;49.310;8.646;2023-03-18T03:06:25;100112.94;;;12.38;66.56
19736;BME280;32064;49.310;8.646;2023-03-18T03:08:51;100113.50;;;12.41;64.95
19736;BME280;32064;49.310;8.646;2023-03-18T03:11:17;100121.31;;;12.43;64.38
19736;BME280;32064;49.310;8.646;2023-03-18T03:13:43;100117.00;;;12.42;65.87
19736;BME280;32064;49.310;8.646;2023-03-18T03:16:11;100109.78;;;12.44;66.18
19736;BME280;32064;49.310;8.646;2023-03-18T03:18:38;100111.09;;;12.49;65.37
19736;BME280;32064;49.310;8.646;2023-03-18T03:21:04;100106.28;;;12.54;65.16
19736;BME280;32064;49.310;8.646;2023-03-18T03:23:29;100112.84;;;12.60;66.13
19736;BME280;32064;49.310;8.646;2023-03-18T03:25:55;100114.38;;;12.63;65.54
19736;BME280;32064;49.310;8.646;2023-03-18T03:28:21;100127.69;;;12.61;64.71
19736;BME280;32064;49.310;8.646;2023-03-18T03:30:47;100126.97;;;12.59;65.94
19736;BME280;32064;49.310;8.646;2023-03-18T03:33:12;100132.00;;;12.62;66.50
19736;BME280;32064;49.310;8.646;2023-03-18T03:35:38;100132.00;;;12.62;66.21
19736;BME280;32064;49.310;8.646;2023-03-18T03:38:04;100133.53;;;12.65;64.81
19736;BME280;32064;49.310;8.646;2023-03-18T03:40:30;100130.78;;;12.66;64.53
19736;BME280;32064;49.310;8.646;2023-03-18T03:42:56;100132.19;;;12.70;65.58
19736;BME280;32064;49.310;8.646;2023-03-18T03:45:21;100133.75;;;12.73;64.67
19736;BME280;32064;49.310;8.646;2023-03-18T03:47:47;100131.94;;;12.73;64.57
19736;BME280;32064;49.310;8.646;2023-03-18T03:50:15;100126.81;;;12.72;64.79
19736;BME280;32064;49.310;8.646;2023-03-18T03:52:40;100126.66;;;12.73;64.70
19736;BME280;32064;49.310;8.646;2023-03-18T03:55:08;100127.63;;;12.72;65.91
19736;BME280;32064;49.310;8.646;2023-03-18T03:57:34;100131.69;;;12.76;65.33
19736;BME280;32064;49.310;8.646;2023-03-18T04:00:03;100132.41;;;12.78;64.96
19736;BME280;32064;49.310;8.646;2023-03-18T04:02:28;100140.06;;;12.81;65.42
19736;BME280;32064;49.310;8.646;2023-03-18T04:04:54;100137.16;;;12.85;65.05
19736;BME280;32064;49.310;8.646;2023-03-18T04:07:20;100139.81;;;12.85;64.88
19736;BME280;32064;49.310;8.646;2023-03-18T04:09:45;100138.03;;;12.85;64.47
19736;BME280;32064;49.310;8.646;2023-03-18T04:12:11;100138.84;;;12.86;63.67
19736;BME280;32064;49.310;8.646;2023-03-18T04:14:36;100148.19;;;12.90;64.57
19736;BME280;32064;49.310;8.646;2023-03-18T04:17:02;100143.03;;;12.88;65.08
19736;BME280;32064;49.310;8.646;2023-03-18T04:19:28;100143.03;;;12.88;64.00
19736;BME280;32064;49.310;8.646;2023-03-18T04:21:54;100141.81;;;12.92;63.69
19736;BME280;32064;49.310;8.646;2023-03-18T04:24:21;100137.34;;;12.93;63.58
19736;BME280;32064;49.310;8.646;2023-03-18T04:26:46;100146.00;;;12.95;63.97
19736;BME280;32064;49.310;8.646;2023-03-18T04:29:12;100132.41;;;12.99;64.87
19736;BME280;32064;49.310;8.646;2023-03-18T04:31:37;100140.91;;;13.03;64.78
19736;BME280;32064;49.310;8.646;2023-03-18T04:34:03;100144.38;;;13.03;63.50
19736;BME280;32064;49.310;8.646;2023-03-18T04:36:28;100136.72;;;13.00;64.37
19736;BME280;32064;49.310;8.646;2023-03-18T04:38:54;100148.50;;;12.96;63.52
19736;BME280;32064;49.310;8.646;2023-03-18T04:41:21;100148.63;;;12.95;63.80
19736;BME280;32064;49.310;8.646;2023-03-18T04:43:47;100155.47;;;12.97;65.29
19736;BME280;32064;49.310;8.646;2023-03-18T04:46:13;100148.63;;;12.95;64.38
19736;BME280;32064;49.310;8.646;2023-03-18T04:48:39;100150.03;;;12.99;65.25
19736;BME280;32064;49.310;8.646;2023-03-18T04:51:06;100145.63;;;12.99;65.38
19736;BME280;32064;49.310;8.646;2023-03-18T04:53:37;100154.50;;;12.98;64.35
19736;BME280;32064;49.310;8.646;2023-03-18T04:56:03;100150.19;;;12.97;66.15
19736;BME280;32064;49.310;8.646;2023-03-18T04:58:28;100147.53;;;12.97;64.22
19736;BME280;32064;49.310;8.646;2023-03-18T05:00:54;100141.53;;;12.95;64.22
19736;BME280;32064;49.310;8.646;2023-03-18T05:03:19;100147.81;;;12.94;65.76
19736;BME280;32064;49.310;8.646;2023-03-18T05:05:45;100152.38;;;12.92;65.93
19736;BME280;32064;49.310;8.646;2023-03-18T05:08:11;100146.97;;;12.94;64.59
19736;BME280;32064;49.310;8.646;2023-03-18T05:10:37;100148.75;;;12.93;64.26
19736;BME280;32064;49.310;8.646;2023-03-18T05:13:05;100152.94;;;12.96;65.12
19736;BME280;32064;49.310;8.646;2023-03-18T05:15:31;100147.66;;;12.96;64.30
19736;BME280;32064;49.310;8.646;2023-03-18T05:17:57;100153.78;;;12.96;64.91
19736;BME280;32064;49.310;8.646;2023-03-18T05:20:22;100152.81;;;12.97;65.86
19736;BME280;32064;49.310;8.646;2023-03-18T05:22:48;100160.75;;;12.97;65.42
19736;BME280;32064;49.310;8.646;2023-03-18T05:25:13;100165.19;;;12.97;65.42
19736;BME280;32064;49.310;8.646;2023-03-18T05:27:39;100157.97;;;12.99;64.95
19736;BME280;32064;49.310;8.646;2023-03-18T05:30:05;100159.78;;;12.98;64.62
19736;BME280;32064;49.310;8.646;2023-03-18T05:32:31;100165.06;;;12.98;65.29
19736;BME280;32064;49.310;8.646;2023-03-18T05:34:57;100161.84;;;12.95;65.76
19736;BME280;32064;49.310;8.646;2023-03-18T05:37:22;100160.56;;;12.89;65.93
19736;BME280;32064;49.310;8.646;2023-03-18T05:39:48;100155.63;;;12.85;64.85
19736;BME280;32064;49.310;8.646;2023-03-18T05:42:14;100161.19;;;12.81;65.51
19736;BME280;32064;49.310;8.646;2023-03-18T05:44:40;100155.00;;;12.71;64.94
19736;BME280;32064;49.310;8.646;2023-03-18T05:47:07;100164.03;;;12.69;64.98
19736;BME280;32064;49.310;8.646;2023-03-18T05:49:32;100162.47;;;12.66;65.40
19736;BME280;32064;49.310;8.646;2023-03-18T05:51:58;100166.44;;;12.61;66.78
19736;BME280;32064;49.310;8.646;2023-03-18T05:54:23;100164.66;;;12.61;65.85
19736;BME280;32064;49.310;8.646;2023-03-18T05:56:49;100170.91;;;12.60;65.66
19736;BME280;32064;49.310;8.646;2023-03-18T05:59:17;100166.81;;;12.56;65.73
19736;BME280;32064;49.310;8.646;2023-03-18T06:01:43;100171.53;;;12.52;65.29
19736;BME280;32064;49.310;8.646;2023-03-18T06:04:08;100171.53;;;12.52;65.35
19736;BME280;32064;49.310;8.646;2023-03-18T06:06:35;100174.00;;;12.54;67.00
19736;BME280;32064;49.310;8.646;2023-03-18T06:09:08;100178.66;;;12.62;66.25
19736;BME280;32064;49.310;8.646;2023-03-18T06:11:35;100172.50;;;12.72;65.58
19736;BME280;32064;49.310;8.646;2023-03-18T06:14:01;100173.22;;;12.74;65.50
19736;BME280;32064;49.310;8.646;2023-03-18T06:16:27;100177.53;;;12.75;65.59
19736;BME280;32064;49.310;8.646;2023-03-18T06:18:53;100172.16;;;12.77;65.26
19736;BME280;32064;49.310;8.646;2023-03-18T06:21:18;100177.75;;;12.84;65.89
19736;BME280;32064;49.310;8.646;2023-03-18T06:23:44;100180.84;;;12.89;66.17
19736;BME280;32064;49.310;8.646;2023-03-18T06:26:09;100183.94;;;12.94;64.60
19736;BME280;32064;49.310;8.646;2023-03-18T06:28:35;100181.72;;;12.99;65.52
19736;BME280;32064;49.310;8.646;2023-03-18T06:31:00;100177.06;;;13.02;66.12
19736;BME280;32064;49.310;8.646;2023-03-18T06:33:26;100182.06;;;13.06;64.98
19736;BME280;32064;49.310;8.646;2023-03-18T06:35:53;100182.19;;;13.04;65.30
19736;BME280;32064;49.310;8.646;2023-03-18T06:38:19;100184.44;;;13.09;65.75
19736;BME280;32064;49.310;8.646;2023-03-18T06:40:45;100182.53;;;13.11;65.02
19736;BME280;32064;49.310;8.646;2023-03-18T06:43:11;100185.03;;;13.12;65.68
19736;BME280;32064;49.310;8.646;2023-03-18T06:45:37;100187.53;;;13.14;64.62
19736;BME280;32064;49.310;8.646;2023-03-18T06:48:03;100193.66;;;13.14;65.96
19736;BME280;32064;49.310;8.646;2023-03-18T06:50:29;100192.16;;;13.21;65.64
19736;BME280;32064;49.310;8.646;2023-03-18T06:52:56;100201.13;;;13.30;65.21
19736;BME280;32064;49.310;8.646;2023-03-18T06:55:22;100188.13;;;13.38;65.80
19736;BME280;32064;49.310;8.646;2023-03-18T06:57:47;100188.19;;;13.48;64.48
19736;BME280;32064;49.310;8.646;2023-03-18T07:00:13;100198.75;;;13.79;63.87
19736;BME280;32064;49.310;8.646;2023-03-18T07:02:39;100190.03;;;13.98;63.13
19736;BME280;32064;49.310;8.646;2023-03-18T07:05:06;100200.72;;;14.46;61.45
19736;BME280;32064;49.310;8.646;2023-03-18T07:07:32;100200.19;;;17.56;55.60
19736;BME280;32064;49.310;8.646;2023-03-18T07:09:58;100207.88;;;16.89;55.91
19736;BME280;32064;49.310;8.646;2023-03-18T07:12:24;100203.91;;;17.11;56.04
19736;BME280;32064;49.310;8.646;2023-03-18T07:14:51;100206.88;;;16.09;59.47
19736;BME280;32064;49.310;8.646;2023-03-18T07:17:18;100216.38;;;16.29;58.83
19736;BME280;32064;49.310;8.646;2023-03-18T07:19:44;100220.34;;;17.33;55.72
19736;BME280;32064;49.310;8.646;2023-03-18T07:22:09;100218.13;;;20.65;49.08
19736;BME280;32064;49.310;8.646;2023-03-18T07:24:36;100221.16;;;22.20;45.86
19736;BME280;32064;49.310;8.646;2023-03-18T07:27:02;100235.94;;;23.38;45.17
19736;BME280;32064;49.310;8.646;2023-03-18T07:29:28;100227.16;;;24.27;43.45
19736;BME280;32064;49.310;8.646;2023-03-18T07:31:54;100223.41;;;24.90;42.37
19736;BME280;32064;49.310;8.646;2023-03-18T07:34:19;100227.97;;;25.49;41.85
19736;BME280;32064;49.310;8.646;2023-03-18T07:36:45;100232.88;;;25.92;40.47
19736;BME280;32064;49.310;8.646;2023-03-18T07:39:11;100235.59;;;26.37;39.55
19736;BME280;32064;49.310;8.646;2023-03-18T07:41:36;100240.31;;;26.03;40.09
19736;BME280;32064;49.310;8.646;2023-03-18T07:44:02;100236.56;;;22.91;45.00
19736;BME280;32064;49.310;8.646;2023-03-18T07:46:28;100227.75;;;21.20;47.72
19736;BME280;32064;49.310;8.646;2023-03-18T07:48:53;100235.59;;;20.13;47.71
19736;BME280;32064;49.310;8.646;2023-03-18T07:51:19;100232.78;;;19.51;48.94
19736;BME280;32064;49.310;8.646;2023-03-18T07:53:44;100232.78;;;19.10;49.54
19736;BME280;32064;49.310;8.646;2023-03-18T07:56:10;100225.91;;;18.67;49.25
19736;BME280;32064;49.310;8.646;2023-03-18T07:58:36;100234.59;;;18.69;50.02
19736;BME280;32064;49.310;8.646;2023-03-18T08:01:03;100226.53;;;18.44;49.59
19736;BME280;32064;49.310;8.646;2023-03-18T08:03:28;100228.31;;;18.27;49.34
19736;BME280;32064;49.310;8.646;2023-03-18T08:05:54;100228.22;;;18.53;49.55
19736;BME280;32064;49.310;8.646;2023-03-18T08:08:20;100223.16;;;19.89;47.27
19736;BME280;32064;49.310;8.646;2023-03-18T08:10:47;100223.53;;;20.80;45.71
19736;BME280;32064;49.310;8.646;2023-03-18T08:13:12;100235.81;;;20.35;45.99
19736;BME280;32064;49.310;8.646;2023-03-18T08:15:38;100237.88;;;19.85;46.62
19736;BME280;32064;49.310;8.646;2023-03-18T08:18:04;100233.94;;;19.57;46.84
19736;BME280;32064;49.310;8.646;2023-03-18T08:20:30;100235.97;;;20.73;44.90
19736;BME280;32064;49.310;8.646;2023-03-18T08:22:55;100239.88;;;23.64;41.43
19736;BME280;32064;49.310;8.646;2023-03-18T08:25:21;100244.38;;;25.14;38.15
19736;BME280;32064;49.310;8.646;2023-03-18T08:27:48;100239.38;;;26.29;36.75
19736;BME280;32064;49.310;8.646;2023-03-18T08:30:14;100236.66;;;27.31;35.81
19736;BME280;32064;49.310;8.646;2023-03-18T08:32:39;100255.38;;;28.13;34.79
19736;BME280;32064;49.310;8.646;2023-03-18T08:35:05;100243.59;;;28.56;34.55
19736;BME280;32064;49.310;8.646;2023-03-18T08:37:31;100248.94;;;29.04;33.52
19736;BME280;32064;49.310;8.646;2023-03-18T08:39:56;100247.56;;;29.49;33.00
19736;BME280;32064;49.310;8.646;2023-03-18T08:42:22;100247.50;;;29.67;32.85
19736;BME280;32064;49.310;8.646;2023-03-18T08:44:48;100240.13;;;29.91;31.76
19736;BME280;32064;49.310;8.646;2023-03-18T08:47:15;100245.53;;;30.15;31.60
19736;BME280;32064;49.310;8.646;2023-03-18T08:49:40;100255.41;;;30.33;30.87
19736;BME280;32064;49.310;8.646;2023-03-18T08:52:06;100251.03;;;30.60;31.19
19736;BME280;32064;49.310;8.646;2023-03-18T08:54:31;100253.31;;;30.80;30.51
19736;BME280;32064;49.310;8.646;2023-03-18T08:56:57;100249.78;;;30.97;29.27
19736;BME280;32064;49.310;8.646;2023-03-18T08:59:23;100249.72;;;31.25;28.96
19736;BME280;32064;49.310;8.646;2023-03-18T09:01:48;100245.63;;;31.62;28.62
19736;BME280;32064;49.310;8.646;2023-03-18T09:04:14;100240.66;;;31.75;28.46
19736;BME280;32064;49.310;8.646;2023-03-18T09:06:40;100245.59;;;31.06;29.50
19736;BME280;32064;49.310;8.646;2023-03-18T09:09:06;100238.50;;;31.05;27.84
19736;BME280;32064;49.310;8.646;2023-03-18T09:11:32;100227.63;;;29.55;29.86
19736;BME280;32064;49.310;8.646;2023-03-18T09:13:59;100231.19;;;29.08;30.73
19736;BME280;32064;49.310;8.646;2023-03-18T09:16:25;100227.44;;;29.68;29.86
19736;BME280;32064;49.310;8.646;2023-03-18T09:18:50;100234.28;;;30.23;28.63
19736;BME280;32064;49.310;8.646;2023-03-18T09:21:16;100231.53;;;30.63;28.14
19736;BME280;32064;49.310;8.646;2023-03-18T09:23:41;100226.97;;;30.81;27.83
19736;BME280;32064;49.310;8.646;2023-03-18T09:26:07;100230.75;;;30.97;27.48
19736;BME280;32064;49.310;8.646;2023-03-18T09:28:33;100223.34;;;29.00;28.81
19736;BME280;32064;49.310;8.646;2023-03-18T09:30:58;100220.34;;;27.44;31.25
19736;BME280;32064;49.310;8.646;2023-03-18T09:33:23;100214.34;;;27.61;29.59
19736;BME280;32064;49.310;8.646;2023-03-18T09:35:49;100206.56;;;29.22;29.06
19736;BME280;32064;49.310;8.646;2023-03-18T09:38:16;100207.19;;;30.40;28.26
19736;BME280;32064;49.310;8.646;2023-03-18T09:40:57;100211.31;;;31.05;27.62
19736;BME280;32064;49.310;8.646;2023-03-18T09:43:43;100204.84;;;31.84;25.24
19736;BME280;32064;49.310;8.646;2023-03-18T09:54:28;100192.31;;;32.86;23.65
19736;BME280;32064;49.310;8.646;2023-03-18T09:56:56;100196.59;;;33.04;24.74
19736;BME280;32064;49.310;8.646;2023-03-18T09:59:31;100192.09;;;33.25;23.97
19736;BME280;32064;49.310;8.646;2023-03-18T10:02:00;100184.09;;;32.49;26.23
19736;BME280;32064;49.310;8.646;2023-03-18T10:04:45;100188.06;;;30.63;25.16
19736;BME280;32064;49.310;8.646;2023-03-18T10:07:16;100199.38;;;29.39;26.93
19736;BME280;32064;49.310;8.646;2023-03-18T10:12:51;100194.25;;;29.90;26.38
19736;BME280;32064;49.310;8.646;2023-03-18T10:18:03;100199.63;;;31.04;26.31
19736;BME280;32064;49.310;8.646;2023-03-18T10:20:50;100190.09;;;30.56;25.26
19736;BME280;32064;49.310;8.646;2023-03-18T10:26:04;100191.44;;;30.71;25.72
19736;BME280;32064;49.310;8.646;2023-03-18T10:31:44;100189.94;;;30.63;26.03
19736;BME280;32064;49.310;8.646;2023-03-18T10:34:20;100178.84;;;31.93;25.47
19736;BME280;32064;49.310;8.646;2023-03-18T10:39:17;100176.91;;;32.70;25.01
19736;BME280;32064;49.310;8.646;2023-03-18T10:41:51;100179.25;;;32.88;23.97
19736;BME280;32064;49.310;8.646;2023-03-18T10:44:25;100182.88;;;31.90;26.10
19736;BME280;32064;49.310;8.646;2023-03-18T10:49:35;100187.19;;;30.29;26.74
19736;BME280;32064;49.310;8.646;2023-03-18T10:52:13;100195.09;;;29.79;25.24
19736;BME280;32064;49.310;8.646;2023-03-18T10:54:44;100187.56;;;29.57;27.39
19736;BME280;32064;49.310;8.646;2023-03-18T10:57:15;100183.59;;;30.00;27.36
19736;BME280;32064;49.310;8.646;2023-03-18T10:59:42;100178.69;;;30.26;26.93
19736;BME280;32064;49.310;8.646;2023-03-18T11:02:25;100185.47;;;29.99;26.08
19736;BME280;32064;49.310;8.646;2023-03-18T11:04:58;100178.00;;;30.47;25.95
19736;BME280;32064;49.310;8.646;2023-03-18T11:07:28;100170.13;;;29.18;27.33
19736;BME280;32064;49.310;8.646;2023-03-18T11:10:09;100174.81;;;29.81;27.58
19736;BME280;32064;49.310;8.646;2023-03-18T11:12:35;100171.03;;;30.85;26.27
19736;BME280;32064;49.310;8.646;2023-03-18T11:15:06;100176.66;;;30.95;26.62
19736;BME280;32064;49.310;8.646;2023-03-18T11:17:34;100169.03;;;30.06;27.27
19736;BME280;32064;49.310;8.646;2023-03-18T11:22:52;100164.47;;;29.43;26.99
19736;BME280;32064;49.310;8.646;2023-03-18T11:25:21;100166.94;;;30.37;26.24
19736;BME280;32064;49.310;8.646;2023-03-18T11:28:20;100173.28;;;30.42;25.05
19736;BME280;32064;49.310;8.646;2023-03-18T11:30:48;100173.09;;;31.28;25.08
19736;BME280;32064;49.310;8.646;2023-03-18T11:33:16;100159.72;;;31.66;25.12
19736;BME280;32064;49.310;8.646;2023-03-18T11:35:51;100170.78;;;31.37;24.44
19736;BME280;32064;49.310;8.646;2023-03-18T11:38:23;100173.41;;;31.15;24.71
19736;BME280;32064;49.310;8.646;2023-03-18T11:40:51;100155.56;;;30.11;25.41
19736;BME280;32064;49.310;8.646;2023-03-18T11:43:21;100151.25;;;29.46;25.86
19736;BME280;32064;49.310;8.646;2023-03-18T11:46:00;100144.19;;;28.98;26.36
19736;BME280;32064;49.310;8.646;2023-03-18T11:56:54;100140.16;;;28.24;27.11
19736;BME280;32064;49.310;8.646;2023-03-18T11:59:47;100135.06;;;28.15;26.44
19736;BME280;32064;49.310;8.646;2023-03-18T12:02:36;100137.16;;;28.13;27.29
19736;BME280;32064;49.310;8.646;2023-03-18T12:08:11;100136.44;;;28.06;27.47
19736;BME280;32064;49.310;8.646;2023-03-18T12:10:41;100132.25;;;28.22;27.98
19736;BME280;32064;49.310;8.646;2023-03-18T12:16:54;100123.31;;;27.73;28.40
19736;BME280;32064;49.310;8.646;2023-03-18T12:19:42;100120.84;;;27.90;28.23
19736;BME280;32064;49.310;8.646;2023-03-18T12:25:22;100119.50;;;27.44;28.88
19736;BME280;32064;49.310;8.646;2023-03-18T12:28:08;100121.75;;;27.03;28.23
19736;BME280;32064;49.310;8.646;2023-03-18T12:30:55;100109.56;;;26.76;29.25
19736;BME280;32064;49.310;8.646;2023-03-18T12:33:54;100108.91;;;26.55;28.30
19736;BME280;32064;49.310;8.646;2023-03-18T12:36:45;100111.69;;;26.35;29.01
19736;BME280;32064;49.310;8.646;2023-03-18T12:47:19;100104.16;;;26.19;29.08
19736;BME280;32064;49.310;8.646;2023-03-18T12:52:32;100112.78;;;25.96;29.26
19736;BME280;32064;49.310;8.646;2023-03-18T12:55:13;100108.28;;;25.83;30.31
19736;BME280;32064;49.310;8.646;2023-03-18T12:57:57;100107.91;;;25.66;29.69
19736;BME280;32064;49.310;8.646;2023-03-18T13:00:48;100102.47;;;25.73;29.66
19736;BME280;32064;49.310;8.646;2023-03-18T13:03:34;100107.41;;;25.96;29.20
19736;BME280;32064;49.310;8.646;2023-03-18T13:06:13;100092.31;;;26.20;29.44
19736;BME280;32064;49.310;8.646;2023-03-18T13:08:51;100088.63;;;26.39;29.92
19736;BME280;32064;49.310;8.646;2023-03-18T13:11:53;100088.13;;;26.56;29.59
19736;BME280;32064;49.310;8.646;2023-03-18T13:17:00;100085.66;;;26.23;29.46
19736;BME280;32064;49.310;8.646;2023-03-18T13:19:27;100090.09;;;26.35;30.19
19736;BME280;32064;49.310;8.646;2023-03-18T13:22:13;100092.69;;;26.24;29.06
19736;BME280;32064;49.310;8.646;2023-03-18T13:27:34;100085.84;;;26.21;29.53
19736;BME280;32064;49.310;8.646;2023-03-18T13:30:28;100086.50;;;25.85;29.93
19736;BME280;32064;49.310;8.646;2023-03-18T13:41:15;100081.28;;;25.90;29.85
19736;BME280;32064;49.310;8.646;2023-03-18T13:43:47;100081.72;;;25.87;29.86
19736;BME280;32064;49.310;8.646;2023-03-18T13:46:18;100078.53;;;25.51;30.61
19736;BME280;32064;49.310;8.646;2023-03-18T13:48:46;100079.84;;;25.29;30.67
19736;BME280;32064;49.310;8.646;2023-03-18T13:51:19;100082.97;;;25.19;30.60
19736;BME280;32064;49.310;8.646;2023-03-18T13:54:04;100066.78;;;25.33;31.16
19736;BME280;32064;49.310;8.646;2023-03-18T14:04:55;100059.97;;;25.30;30.23
19736;BME280;32064;49.310;8.646;2023-03-18T14:07:25;100063.09;;;25.20;30.66
19736;BME280;32064;49.310;8.646;2023-03-18T14:09:52;100054.19;;;25.26;30.44
19736;BME280;32064;49.310;8.646;2023-03-18T14:22:52;100065.59;;;24.29;31.68
19736;BME280;32064;49.310;8.646;2023-03-18T14:25:35;100068.94;;;24.24;31.20
19736;BME280;32064;49.310;8.646;2023-03-18T14:33:02;100047.53;;;23.83;31.54
19736;BME280;32064;49.310;8.646;2023-03-18T14:35:32;100049.16;;;23.70;31.34
19736;BME280;32064;49.310;8.646;2023-03-18T14:38:02;100049.13;;;23.64;31.84